West Saint Paul, Minnesota
Current Conditions -  °F | °C
As of 2:43 AM on Friday 24 Oct 2014 (Local Time) from KSTP Reporting Station
Haze Haze  
Wind Chill: 43°   Ceiling: 300
Heat Index: 47°   Visibility: 1mi
Dew Point: 47°   Wind: 8mph
Humidity: 100%   Direction: 140°SE
Pressure: 29.97"   Gusts: NA
Location:  44.8976°N, 93.103°W
Report Text: KSTP 240743Z AUTO 14007KT 1SM BR BKN003 08/08 A2997 RMK AO2 T00830083 RVRNO $
Loading
Personal Weather Stations






























Interactive Weather Map
Tropical Storm Tracking
New forecast layout! Learn more

10-Day Weather Forecast

Advertisements
Track Severe Weather on mobile